Weather at Jabot Airport

Public forecast

Using degrees Celsius for public forecast. Weather courtesy of forecast.io.

Closest aviation weather report (METAR) to Jabot Airport

Closest report is Bucholz Army Air Field, 94.2 nm (174.5 km) NW.

2024/05/25 01:20 (retrieved 20 minutes ago)

PKWA 250120Z AUTO 07007KT 10SM SCT022 SCT032 BKN049 30/25 A2986 RMK AO2 T02950254

Closest aviation forecast (TAF) to Jabot Airport

Forecast is more than 6 hours old.

Closest forecast is Andersen Air Force Base, 1,460.5 nm (2,704.8 km) WNW.

2024/05/24 18:12 (retrieved 7 hours ago)

TAF PGUA 241800Z 2418/2524 09010G15KT 9999 SCT010 BKN020 QNH2989INS TEMPO 2418/2502 6000 SHRA BKN012 TX30/2502Z TN26/2419Z